sensor_id;sensor_type;location;lat;lon;timestamp;P1;durP1;ratioP1;P2;durP2;ratioP2
61569;SDS011;47462;59.172;17.196;2022-08-11T00:00:19;4.80;;;1.33;;
61569;SDS011;47462;59.172;17.196;2022-08-11T00:05:13;5.50;;;1.23;;
61569;SDS011;47462;59.172;17.196;2022-08-11T00:07:44;4.20;;;1.00;;
61569;SDS011;47462;59.172;17.196;2022-08-11T00:10:24;2.67;;;1.25;;
61569;SDS011;47462;59.172;17.196;2022-08-11T00:12:56;1.45;;;1.10;;
61569;SDS011;47462;59.172;17.196;2022-08-11T00:15:24;1.60;;;1.20;;
61569;SDS011;47462;59.172;17.196;2022-08-11T00:17:56;3.08;;;1.45;;
61569;SDS011;47462;59.172;17.196;2022-08-11T00:20:27;4.72;;;1.48;;
61569;SDS011;47462;59.172;17.196;2022-08-11T00:22:58;2.10;;;1.20;;
61569;SDS011;47462;59.172;17.196;2022-08-11T00:25:26;1.48;;;1.35;;
61569;SDS011;47462;59.172;17.196;2022-08-11T00:27:52;5.25;;;1.55;;
61569;SDS011;47462;59.172;17.196;2022-08-11T00:32:45;4.22;;;1.70;;
61569;SDS011;47462;59.172;17.196;2022-08-11T00:35:19;2.65;;;1.52;;
61569;SDS011;47462;59.172;17.196;2022-08-11T00:37:50;3.10;;;1.40;;
61569;SDS011;47462;59.172;17.196;2022-08-11T00:40:26;2.50;;;1.70;;
61569;SDS011;47462;59.172;17.196;2022-08-11T00:43:12;1.75;;;1.50;;
61569;SDS011;47462;59.172;17.196;2022-08-11T00:45:52;1.27;;;1.17;;
61569;SDS011;47462;59.172;17.196;2022-08-11T00:48:27;4.37;;;1.43;;
61569;SDS011;47462;59.172;17.196;2022-08-11T00:57:09;4.85;;;1.63;;
61569;SDS011;47462;59.172;17.196;2022-08-11T01:02:37;4.45;;;1.20;;
61569;SDS011;47462;59.172;17.196;2022-08-11T01:08:27;4.90;;;1.55;;
61569;SDS011;47462;59.172;17.196;2022-08-11T01:39:07;2.80;;;1.50;;
61569;SDS011;47462;59.172;17.196;2022-08-11T01:45:04;6.28;;;1.70;;
61569;SDS011;47462;59.172;17.196;2022-08-11T01:47:59;4.88;;;1.67;;
61569;SDS011;47462;59.172;17.196;2022-08-11T01:50:36;3.20;;;1.83;;
61569;SDS011;47462;59.172;17.196;2022-08-11T02:06:41;4.00;;;1.65;;
61569;SDS011;47462;59.172;17.196;2022-08-11T02:12:17;4.72;;;1.90;;
61569;SDS011;47462;59.172;17.196;2022-08-11T02:15:13;3.25;;;1.80;;
61569;SDS011;47462;59.172;17.196;2022-08-11T02:20:46;4.55;;;1.60;;
61569;SDS011;47462;59.172;17.196;2022-08-11T02:29:58;1.50;;;1.40;;
61569;SDS011;47462;59.172;17.196;2022-08-11T02:38:16;3.45;;;2.00;;
61569;SDS011;47462;59.172;17.196;2022-08-11T02:41:09;2.63;;;1.83;;
61569;SDS011;47462;59.172;17.196;2022-08-11T02:52:02;2.30;;;1.60;;
61569;SDS011;47462;59.172;17.196;2022-08-11T02:57:41;5.57;;;2.05;;
61569;SDS011;47462;59.172;17.196;2022-08-11T03:00:12;3.78;;;1.90;;
61569;SDS011;47462;59.172;17.196;2022-08-11T03:08:50;3.65;;;1.80;;
61569;SDS011;47462;59.172;17.196;2022-08-11T03:18:23;2.67;;;1.63;;
61569;SDS011;47462;59.172;17.196;2022-08-11T03:21:14;3.20;;;1.67;;
61569;SDS011;47462;59.172;17.196;2022-08-11T03:23:57;2.97;;;1.80;;
61569;SDS011;47462;59.172;17.196;2022-08-11T03:26:38;2.55;;;1.92;;
61569;SDS011;47462;59.172;17.196;2022-08-11T03:32:05;6.05;;;2.63;;
61569;SDS011;47462;59.172;17.196;2022-08-11T03:34:37;5.97;;;1.98;;
61569;SDS011;47462;59.172;17.196;2022-08-11T03:37:23;5.30;;;2.05;;
61569;SDS011;47462;59.172;17.196;2022-08-11T03:40:24;4.30;;;1.83;;
61569;SDS011;47462;59.172;17.196;2022-08-11T03:43:36;2.95;;;2.55;;
61569;SDS011;47462;59.172;17.196;2022-08-11T04:06:49;5.60;;;2.92;;
61569;SDS011;47462;59.172;17.196;2022-08-11T04:43:14;8.60;;;1.65;;
61569;SDS011;47462;59.172;17.196;2022-08-11T04:55:35;1.75;;;1.50;;
61569;SDS011;47462;59.172;17.196;2022-08-11T04:58:11;5.97;;;1.63;;
61569;SDS011;47462;59.172;17.196;2022-08-11T05:13:03;4.88;;;1.70;;
61569;SDS011;47462;59.172;17.196;2022-08-11T05:15:59;2.20;;;1.40;;
61569;SDS011;47462;59.172;17.196;2022-08-11T05:18:53;3.75;;;1.33;;
61569;SDS011;47462;59.172;17.196;2022-08-11T05:24:25;6.88;;;1.63;;
61569;SDS011;47462;59.172;17.196;2022-08-11T05:27:18;4.53;;;1.52;;
61569;SDS011;47462;59.172;17.196;2022-08-11T05:30:13;3.90;;;1.30;;
61569;SDS011;47462;59.172;17.196;2022-08-11T05:33:08;2.10;;;1.08;;
61569;SDS011;47462;59.172;17.196;2022-08-11T05:36:05;3.05;;;1.25;;
61569;SDS011;47462;59.172;17.196;2022-08-11T05:38:36;3.88;;;1.70;;
61569;SDS011;47462;59.172;17.196;2022-08-11T05:41:23;5.43;;;1.80;;
61569;SDS011;47462;59.172;17.196;2022-08-11T05:44:09;3.70;;;1.45;;
61569;SDS011;47462;59.172;17.196;2022-08-11T05:47:02;4.15;;;1.63;;
61569;SDS011;47462;59.172;17.196;2022-08-11T05:49:48;4.93;;;1.40;;
61569;SDS011;47462;59.172;17.196;2022-08-11T05:52:34;3.47;;;1.30;;
61569;SDS011;47462;59.172;17.196;2022-08-11T05:55:23;3.47;;;1.20;;
61569;SDS011;47462;59.172;17.196;2022-08-11T05:58:08;2.08;;;1.25;;
61569;SDS011;47462;59.172;17.196;2022-08-11T06:00:42;6.30;;;1.63;;
61569;SDS011;47462;59.172;17.196;2022-08-11T06:03:10;2.92;;;1.15;;
61569;SDS011;47462;59.172;17.196;2022-08-11T06:05:49;3.28;;;1.48;;
61569;SDS011;47462;59.172;17.196;2022-08-11T06:08:15;3.10;;;1.23;;
61569;SDS011;47462;59.172;17.196;2022-08-11T06:10:51;3.58;;;1.30;;
61569;SDS011;47462;59.172;17.196;2022-08-11T06:13:25;2.47;;;1.20;;
61569;SDS011;47462;59.172;17.196;2022-08-11T06:15:51;2.92;;;1.13;;
61569;SDS011;47462;59.172;17.196;2022-08-11T06:18:25;4.13;;;1.48;;
61569;SDS011;47462;59.172;17.196;2022-08-11T06:20:53;5.15;;;1.30;;
61569;SDS011;47462;59.172;17.196;2022-08-11T06:23:21;2.63;;;1.10;;
61569;SDS011;47462;59.172;17.196;2022-08-11T06:25:50;2.95;;;1.45;;
61569;SDS011;47462;59.172;17.196;2022-08-11T06:28:27;2.03;;;1.45;;
61569;SDS011;47462;59.172;17.196;2022-08-11T06:30:57;5.55;;;1.33;;
61569;SDS011;47462;59.172;17.196;2022-08-11T06:41:43;3.30;;;1.20;;
61569;SDS011;47462;59.172;17.196;2022-08-11T06:46:38;3.58;;;1.25;;
61569;SDS011;47462;59.172;17.196;2022-08-11T06:49:31;1.80;;;1.08;;
61569;SDS011;47462;59.172;17.196;2022-08-11T06:52:18;7.10;;;1.60;;
61569;SDS011;47462;59.172;17.196;2022-08-11T06:54:58;2.88;;;1.10;;
61569;SDS011;47462;59.172;17.196;2022-08-11T06:57:36;4.18;;;1.67;;
61569;SDS011;47462;59.172;17.196;2022-08-11T07:00:24;2.72;;;1.40;;
61569;SDS011;47462;59.172;17.196;2022-08-11T07:03:04;4.30;;;1.13;;
61569;SDS011;47462;59.172;17.196;2022-08-11T07:12:08;2.70;;;1.05;;
61569;SDS011;47462;59.172;17.196;2022-08-11T07:15:05;4.30;;;1.52;;
61569;SDS011;47462;59.172;17.196;2022-08-11T07:17:53;3.63;;;1.10;;
61569;SDS011;47462;59.172;17.196;2022-08-11T07:20:42;1.88;;;1.00;;
61569;SDS011;47462;59.172;17.196;2022-08-11T07:23:29;1.92;;;1.00;;
61569;SDS011;47462;59.172;17.196;2022-08-11T07:26:18;2.80;;;1.08;;
61569;SDS011;47462;59.172;17.196;2022-08-11T07:29:11;3.40;;;1.50;;
61569;SDS011;47462;59.172;17.196;2022-08-11T07:31:47;3.53;;;1.00;;
61569;SDS011;47462;59.172;17.196;2022-08-11T07:34:20;3.60;;;1.42;;
61569;SDS011;47462;59.172;17.196;2022-08-11T07:36:59;2.13;;;1.20;;
61569;SDS011;47462;59.172;17.196;2022-08-11T07:39:31;2.33;;;1.00;;
61569;SDS011;47462;59.172;17.196;2022-08-11T07:41:58;3.67;;;1.20;;
61569;SDS011;47462;59.172;17.196;2022-08-11T07:44:29;4.18;;;1.10;;
61569;SDS011;47462;59.172;17.196;2022-08-11T07:46:55;4.95;;;1.17;;
61569;SDS011;47462;59.172;17.196;2022-08-11T07:49:43;2.35;;;1.08;;
61569;SDS011;47462;59.172;17.196;2022-08-11T07:52:31;5.43;;;1.20;;
61569;SDS011;47462;59.172;17.196;2022-08-11T07:55:03;2.97;;;1.20;;
61569;SDS011;47462;59.172;17.196;2022-08-11T07:57:39;5.05;;;1.13;;
61569;SDS011;47462;59.172;17.196;2022-08-11T08:00:26;2.47;;;1.08;;
61569;SDS011;47462;59.172;17.196;2022-08-11T08:03:11;2.30;;;0.98;;
61569;SDS011;47462;59.172;17.196;2022-08-11T08:06:01;2.95;;;1.17;;
61569;SDS011;47462;59.172;17.196;2022-08-11T08:08:45;4.90;;;1.30;;
61569;SDS011;47462;59.172;17.196;2022-08-11T08:11:29;2.72;;;1.00;;
61569;SDS011;47462;59.172;17.196;2022-08-11T08:14:14;2.60;;;0.90;;
61569;SDS011;47462;59.172;17.196;2022-08-11T08:17:00;1.50;;;1.10;;
61569;SDS011;47462;59.172;17.196;2022-08-11T08:19:47;3.42;;;0.88;;
61569;SDS011;47462;59.172;17.196;2022-08-11T08:22:14;5.25;;;1.38;;
61569;SDS011;47462;59.172;17.196;2022-08-11T08:24:42;2.05;;;0.90;;
61569;SDS011;47462;59.172;17.196;2022-08-11T08:27:09;2.17;;;0.70;;
61569;SDS011;47462;59.172;17.196;2022-08-11T08:29:39;4.32;;;1.27;;
61569;SDS011;47462;59.172;17.196;2022-08-11T08:32:24;2.75;;;0.88;;
61569;SDS011;47462;59.172;17.196;2022-08-11T08:34:52;3.40;;;1.05;;
61569;SDS011;47462;59.172;17.196;2022-08-11T08:37:20;3.85;;;1.20;;
61569;SDS011;47462;59.172;17.196;2022-08-11T08:39:48;3.38;;;1.00;;
61569;SDS011;47462;59.172;17.196;2022-08-11T08:42:34;2.63;;;0.85;;
61569;SDS011;47462;59.172;17.196;2022-08-11T08:45:09;2.28;;;0.90;;
61569;SDS011;47462;59.172;17.196;2022-08-11T08:50:33;2.58;;;1.00;;
61569;SDS011;47462;59.172;17.196;2022-08-11T08:53:24;2.72;;;0.90;;
61569;SDS011;47462;59.172;17.196;2022-08-11T08:56:00;4.22;;;0.90;;
61569;SDS011;47462;59.172;17.196;2022-08-11T08:58:27;4.30;;;1.10;;
61569;SDS011;47462;59.172;17.196;2022-08-11T09:00:55;2.92;;;0.80;;
61569;SDS011;47462;59.172;17.196;2022-08-11T09:03:23;2.45;;;1.00;;
61569;SDS011;47462;59.172;17.196;2022-08-11T09:06:03;1.77;;;0.80;;
61569;SDS011;47462;59.172;17.196;2022-08-11T09:08:30;2.17;;;0.88;;
61569;SDS011;47462;59.172;17.196;2022-08-11T09:11:01;2.28;;;1.00;;
61569;SDS011;47462;59.172;17.196;2022-08-11T09:13:53;3.17;;;1.00;;
61569;SDS011;47462;59.172;17.196;2022-08-11T09:16:20;1.40;;;0.98;;
61569;SDS011;47462;59.172;17.196;2022-08-11T09:18:48;4.78;;;0.80;;
61569;SDS011;47462;59.172;17.196;2022-08-11T09:21:16;3.38;;;0.80;;
61569;SDS011;47462;59.172;17.196;2022-08-11T09:23:46;2.95;;;1.10;;
61569;SDS011;47462;59.172;17.196;2022-08-11T09:26:35;2.30;;;1.08;;
61569;SDS011;47462;59.172;17.196;2022-08-11T09:29:31;1.77;;;0.82;;
61569;SDS011;47462;59.172;17.196;2022-08-11T09:31:58;1.70;;;0.88;;
61569;SDS011;47462;59.172;17.196;2022-08-11T09:34:25;2.42;;;0.77;;
61569;SDS011;47462;59.172;17.196;2022-08-11T09:36:52;6.30;;;0.85;;
61569;SDS011;47462;59.172;17.196;2022-08-11T09:39:46;4.07;;;1.00;;
61569;SDS011;47462;59.172;17.196;2022-08-11T09:42:38;2.40;;;0.90;;
61569;SDS011;47462;59.172;17.196;2022-08-11T09:45:23;0.85;;;0.77;;
61569;SDS011;47462;59.172;17.196;2022-08-11T09:47:53;2.00;;;0.70;;
61569;SDS011;47462;59.172;17.196;2022-08-11T09:50:26;1.08;;;0.60;;
61569;SDS011;47462;59.172;17.196;2022-08-11T09:52:55;2.45;;;0.80;;
61569;SDS011;47462;59.172;17.196;2022-08-11T09:55:21;2.60;;;0.93;;
61569;SDS011;47462;59.172;17.196;2022-08-11T09:57:47;2.65;;;0.70;;
61569;SDS011;47462;59.172;17.196;2022-08-11T10:00:32;3.95;;;0.80;;
61569;SDS011;47462;59.172;17.196;2022-08-11T10:03:02;2.58;;;0.90;;
61569;SDS011;47462;59.172;17.196;2022-08-11T10:05:31;3.10;;;0.80;;
61569;SDS011;47462;59.172;17.196;2022-08-11T10:08:17;4.90;;;0.93;;
61569;SDS011;47462;59.172;17.196;2022-08-11T10:10:44;1.55;;;0.70;;
61569;SDS011;47462;59.172;17.196;2022-08-11T10:13:15;1.50;;;0.95;;
61569;SDS011;47462;59.172;17.196;2022-08-11T10:15:44;3.65;;;0.90;;
61569;SDS011;47462;59.172;17.196;2022-08-11T10:18:15;2.75;;;0.77;;
61569;SDS011;47462;59.172;17.196;2022-08-11T10:21:09;3.13;;;0.90;;
61569;SDS011;47462;59.172;17.196;2022-08-11T10:23:39;3.88;;;0.70;;
61569;SDS011;47462;59.172;17.196;2022-08-11T10:26:25;1.48;;;1.00;;
61569;SDS011;47462;59.172;17.196;2022-08-11T10:29:11;2.90;;;1.10;;
61569;SDS011;47462;59.172;17.196;2022-08-11T10:31:57;2.03;;;0.90;;
61569;SDS011;47462;59.172;17.196;2022-08-11T10:34:44;4.75;;;1.05;;
61569;SDS011;47462;59.172;17.196;2022-08-11T10:37:12;2.45;;;0.88;;
61569;SDS011;47462;59.172;17.196;2022-08-11T10:39:39;2.55;;;0.80;;
61569;SDS011;47462;59.172;17.196;2022-08-11T10:42:06;3.00;;;0.85;;
61569;SDS011;47462;59.172;17.196;2022-08-11T10:44:57;2.50;;;0.93;;
61569;SDS011;47462;59.172;17.196;2022-08-11T10:47:25;3.50;;;1.20;;
61569;SDS011;47462;59.172;17.196;2022-08-11T10:52:56;4.95;;;0.80;;
61569;SDS011;47462;59.172;17.196;2022-08-11T10:55:44;2.70;;;0.85;;
61569;SDS011;47462;59.172;17.196;2022-08-11T10:58:29;3.00;;;0.88;;
61569;SDS011;47462;59.172;17.196;2022-08-11T11:01:09;1.83;;;0.80;;
61569;SDS011;47462;59.172;17.196;2022-08-11T11:03:36;1.67;;;0.73;;
61569;SDS011;47462;59.172;17.196;2022-08-11T11:06:16;2.85;;;1.00;;
61569;SDS011;47462;59.172;17.196;2022-08-11T11:08:50;2.65;;;0.82;;
61569;SDS011;47462;59.172;17.196;2022-08-11T11:11:22;3.20;;;0.65;;
61569;SDS011;47462;59.172;17.196;2022-08-11T11:14:11;1.20;;;0.70;;
61569;SDS011;47462;59.172;17.196;2022-08-11T11:17:00;1.20;;;0.70;;
61569;SDS011;47462;59.172;17.196;2022-08-11T11:19:37;1.67;;;0.68;;
61569;SDS011;47462;59.172;17.196;2022-08-11T11:22:04;2.63;;;0.90;;
61569;SDS011;47462;59.172;17.196;2022-08-11T11:27:37;2.13;;;0.68;;
61569;SDS011;47462;59.172;17.196;2022-08-11T11:30:18;4.32;;;0.88;;
61569;SDS011;47462;59.172;17.196;2022-08-11T11:32:49;1.35;;;0.77;;
61569;SDS011;47462;59.172;17.196;2022-08-11T11:38:31;2.05;;;0.70;;
61569;SDS011;47462;59.172;17.196;2022-08-11T11:40:57;2.22;;;0.70;;
61569;SDS011;47462;59.172;17.196;2022-08-11T11:43:42;2.28;;;0.45;;
61569;SDS011;47462;59.172;17.196;2022-08-11T11:46:10;1.02;;;0.60;;
61569;SDS011;47462;59.172;17.196;2022-08-11T11:48:39;3.75;;;0.70;;
61569;SDS011;47462;59.172;17.196;2022-08-11T11:51:06;2.78;;;0.60;;
61569;SDS011;47462;59.172;17.196;2022-08-11T11:53:32;3.60;;;0.73;;
61569;SDS011;47462;59.172;17.196;2022-08-11T11:55:59;2.17;;;0.90;;
61569;SDS011;47462;59.172;17.196;2022-08-11T11:58:26;0.88;;;0.50;;
61569;SDS011;47462;59.172;17.196;2022-08-11T12:01:11;2.67;;;0.95;;
61569;SDS011;47462;59.172;17.196;2022-08-11T12:03:45;2.25;;;0.75;;
61569;SDS011;47462;59.172;17.196;2022-08-11T12:06:13;4.78;;;0.68;;
61569;SDS011;47462;59.172;17.196;2022-08-11T12:08:40;2.92;;;1.05;;
61569;SDS011;47462;59.172;17.196;2022-08-11T12:11:08;1.33;;;0.90;;
61569;SDS011;47462;59.172;17.196;2022-08-11T12:14:07;2.97;;;0.90;;
61569;SDS011;47462;59.172;17.196;2022-08-11T12:16:43;1.35;;;0.50;;
61569;SDS011;47462;59.172;17.196;2022-08-11T12:19:12;0.95;;;0.60;;
61569;SDS011;47462;59.172;17.196;2022-08-11T12:21:41;1.33;;;0.60;;
61569;SDS011;47462;59.172;17.196;2022-08-11T12:24:26;2.53;;;0.60;;
61569;SDS011;47462;59.172;17.196;2022-08-11T12:27:12;1.80;;;0.75;;
61569;SDS011;47462;59.172;17.196;2022-08-11T12:29:52;1.00;;;0.80;;
61569;SDS011;47462;59.172;17.196;2022-08-11T12:32:26;1.63;;;0.60;;
61569;SDS011;47462;59.172;17.196;2022-08-11T12:34:54;2.50;;;0.60;;
61569;SDS011;47462;59.172;17.196;2022-08-11T12:37:35;1.02;;;0.50;;
61569;SDS011;47462;59.172;17.196;2022-08-11T12:40:06;2.75;;;0.70;;
61569;SDS011;47462;59.172;17.196;2022-08-11T12:42:54;1.40;;;0.70;;
61569;SDS011;47462;59.172;17.196;2022-08-11T12:45:43;1.95;;;0.70;;
61569;SDS011;47462;59.172;17.196;2022-08-11T12:48:17;2.67;;;0.70;;
61569;SDS011;47462;59.172;17.196;2022-08-11T12:51:11;2.45;;;0.77;;
61569;SDS011;47462;59.172;17.196;2022-08-11T12:54:08;1.65;;;0.63;;
61569;SDS011;47462;59.172;17.196;2022-08-11T12:56:45;2.13;;;0.60;;
61569;SDS011;47462;59.172;17.196;2022-08-11T12:59:33;2.92;;;0.65;;
61569;SDS011;47462;59.172;17.196;2022-08-11T13:02:19;2.15;;;0.55;;
61569;SDS011;47462;59.172;17.196;2022-08-11T13:05:07;1.23;;;0.70;;
61569;SDS011;47462;59.172;17.196;2022-08-11T13:07:37;1.55;;;0.60;;
61569;SDS011;47462;59.172;17.196;2022-08-11T13:10:05;3.33;;;0.65;;
61569;SDS011;47462;59.172;17.196;2022-08-11T13:12:33;0.98;;;0.40;;
61569;SDS011;47462;59.172;17.196;2022-08-11T13:15:16;1.95;;;0.63;;
61569;SDS011;47462;59.172;17.196;2022-08-11T13:17:44;3.60;;;0.75;;
61569;SDS011;47462;59.172;17.196;2022-08-11T13:20:13;2.38;;;0.70;;
61569;SDS011;47462;59.172;17.196;2022-08-11T13:22:42;2.05;;;0.80;;
61569;SDS011;47462;59.172;17.196;2022-08-11T13:25:10;1.50;;;0.73;;
61569;SDS011;47462;59.172;17.196;2022-08-11T13:27:38;1.20;;;0.50;;
61569;SDS011;47462;59.172;17.196;2022-08-11T13:30:04;1.33;;;0.70;;
61569;SDS011;47462;59.172;17.196;2022-08-11T13:32:49;2.60;;;0.55;;
61569;SDS011;47462;59.172;17.196;2022-08-11T13:35:15;2.13;;;0.45;;
61569;SDS011;47462;59.172;17.196;2022-08-11T13:37:43;2.05;;;0.52;;
61569;SDS011;47462;59.172;17.196;2022-08-11T13:40:10;1.40;;;0.63;;
61569;SDS011;47462;59.172;17.196;2022-08-11T13:42:38;1.95;;;0.70;;
61569;SDS011;47462;59.172;17.196;2022-08-11T13:45:05;2.72;;;0.50;;
61569;SDS011;47462;59.172;17.196;2022-08-11T13:47:31;1.15;;;0.40;;
61569;SDS011;47462;59.172;17.196;2022-08-11T13:49:58;2.17;;;0.50;;
61569;SDS011;47462;59.172;17.196;2022-08-11T13:52:24;1.75;;;0.60;;
61569;SDS011;47462;59.172;17.196;2022-08-11T13:54:52;1.50;;;0.52;;
61569;SDS011;47462;59.172;17.196;2022-08-11T13:57:18;1.83;;;0.50;;
61569;SDS011;47462;59.172;17.196;2022-08-11T13:59:45;2.92;;;0.60;;
61569;SDS011;47462;59.172;17.196;2022-08-11T14:02:16;2.72;;;0.50;;
61569;SDS011;47462;59.172;17.196;2022-08-11T14:04:44;1.63;;;0.40;;
61569;SDS011;47462;59.172;17.196;2022-08-11T14:07:16;0.75;;;0.40;;
61569;SDS011;47462;59.172;17.196;2022-08-11T14:09:46;3.97;;;0.65;;
61569;SDS011;47462;59.172;17.196;2022-08-11T14:12:31;1.35;;;0.55;;
61569;SDS011;47462;59.172;17.196;2022-08-11T14:15:22;0.52;;;0.40;;
61569;SDS011;47462;59.172;17.196;2022-08-11T14:18:15;3.10;;;0.60;;
61569;SDS011;47462;59.172;17.196;2022-08-11T14:20:46;3.92;;;0.77;;
61569;SDS011;47462;59.172;17.196;2022-08-11T14:23:36;0.70;;;0.40;;
61569;SDS011;47462;59.172;17.196;2022-08-11T14:26:05;1.17;;;0.52;;
61569;SDS011;47462;59.172;17.196;2022-08-11T14:29:00;4.05;;;0.70;;
61569;SDS011;47462;59.172;17.196;2022-08-11T14:31:39;3.80;;;0.60;;
61569;SDS011;47462;59.172;17.196;2022-08-11T14:34:09;1.27;;;0.70;;
61569;SDS011;47462;59.172;17.196;2022-08-11T14:36:39;0.80;;;0.60;;
61569;SDS011;47462;59.172;17.196;2022-08-11T14:39:08;0.93;;;0.50;;
61569;SDS011;47462;59.172;17.196;2022-08-11T14:41:36;0.70;;;0.40;;
61569;SDS011;47462;59.172;17.196;2022-08-11T14:44:21;4.43;;;0.55;;
61569;SDS011;47462;59.172;17.196;2022-08-11T14:47:06;1.77;;;0.63;;
61569;SDS011;47462;59.172;17.196;2022-08-11T14:49:36;1.88;;;0.60;;
61569;SDS011;47462;59.172;17.196;2022-08-11T14:52:03;1.38;;;0.40;;
61569;SDS011;47462;59.172;17.196;2022-08-11T14:54:32;1.00;;;0.47;;
61569;SDS011;47462;59.172;17.196;2022-08-11T14:57:35;2.63;;;0.40;;
61569;SDS011;47462;59.172;17.196;2022-08-11T15:00:02;1.42;;;0.47;;
61569;SDS011;47462;59.172;17.196;2022-08-11T15:02:30;1.70;;;0.70;;
61569;SDS011;47462;59.172;17.196;2022-08-11T15:05:16;2.45;;;0.50;;
61569;SDS011;47462;59.172;17.196;2022-08-11T15:07:44;1.55;;;0.40;;
61569;SDS011;47462;59.172;17.196;2022-08-11T15:10:10;2.55;;;0.50;;
61569;SDS011;47462;59.172;17.196;2022-08-11T15:12:36;0.55;;;0.43;;
61569;SDS011;47462;59.172;17.196;2022-08-11T15:15:06;2.00;;;0.43;;
61569;SDS011;47462;59.172;17.196;2022-08-11T15:17:51;0.45;;;0.40;;
61569;SDS011;47462;59.172;17.196;2022-08-11T15:20:19;1.45;;;0.30;;
61569;SDS011;47462;59.172;17.196;2022-08-11T15:23:04;1.23;;;0.40;;
61569;SDS011;47462;59.172;17.196;2022-08-11T15:25:58;3.67;;;0.75;;
61569;SDS011;47462;59.172;17.196;2022-08-11T15:28:40;1.55;;;0.38;;
61569;SDS011;47462;59.172;17.196;2022-08-11T15:31:29;0.50;;;0.50;;
61569;SDS011;47462;59.172;17.196;2022-08-11T15:34:09;1.25;;;0.52;;
61569;SDS011;47462;59.172;17.196;2022-08-11T15:37:00;1.85;;;0.50;;
61569;SDS011;47462;59.172;17.196;2022-08-11T15:42:50;0.55;;;0.43;;
61569;SDS011;47462;59.172;17.196;2022-08-11T15:45:43;1.40;;;0.55;;
61569;SDS011;47462;59.172;17.196;2022-08-11T15:48:13;1.25;;;0.50;;
61569;SDS011;47462;59.172;17.196;2022-08-11T15:50:45;4.35;;;0.60;;
61569;SDS011;47462;59.172;17.196;2022-08-11T15:53:24;3.22;;;0.80;;
61569;SDS011;47462;59.172;17.196;2022-08-11T15:55:55;1.30;;;0.40;;
61569;SDS011;47462;59.172;17.196;2022-08-11T15:58:23;3.63;;;1.13;;
61569;SDS011;47462;59.172;17.196;2022-08-11T16:01:10;0.70;;;0.38;;
61569;SDS011;47462;59.172;17.196;2022-08-11T16:03:59;1.35;;;0.60;;
61569;SDS011;47462;59.172;17.196;2022-08-11T16:07:09;0.77;;;0.35;;
61569;SDS011;47462;59.172;17.196;2022-08-11T16:09:34;2.70;;;0.68;;
61569;SDS011;47462;59.172;17.196;2022-08-11T16:12:12;3.70;;;0.50;;
61569;SDS011;47462;59.172;17.196;2022-08-11T16:14:44;0.75;;;0.50;;
61569;SDS011;47462;59.172;17.196;2022-08-11T16:17:34;5.25;;;0.85;;
61569;SDS011;47462;59.172;17.196;2022-08-11T16:20:10;3.15;;;0.57;;
61569;SDS011;47462;59.172;17.196;2022-08-11T16:22:38;3.40;;;0.50;;
61569;SDS011;47462;59.172;17.196;2022-08-11T16:25:09;2.15;;;0.93;;
61569;SDS011;47462;59.172;17.196;2022-08-11T16:27:48;3.55;;;0.68;;
61569;SDS011;47462;59.172;17.196;2022-08-11T16:30:17;2.85;;;0.65;;
61569;SDS011;47462;59.172;17.196;2022-08-11T16:32:45;1.50;;;0.70;;
61569;SDS011;47462;59.172;17.196;2022-08-11T16:35:18;2.03;;;0.40;;
61569;SDS011;47462;59.172;17.196;2022-08-11T16:38:06;4.55;;;0.63;;
61569;SDS011;47462;59.172;17.196;2022-08-11T16:40:52;1.23;;;0.40;;
61569;SDS011;47462;59.172;17.196;2022-08-11T16:43:21;3.33;;;0.40;;
61569;SDS011;47462;59.172;17.196;2022-08-11T16:46:08;4.45;;;0.90;;
61569;SDS011;47462;59.172;17.196;2022-08-11T16:49:05;1.95;;;0.47;;
61569;SDS011;47462;59.172;17.196;2022-08-11T16:51:34;1.23;;;0.70;;
61569;SDS011;47462;59.172;17.196;2022-08-11T16:54:00;3.35;;;0.95;;
61569;SDS011;47462;59.172;17.196;2022-08-11T16:56:27;1.85;;;0.50;;
61569;SDS011;47462;59.172;17.196;2022-08-11T16:58:59;3.60;;;0.80;;
61569;SDS011;47462;59.172;17.196;2022-08-11T17:07:23;2.77;;;0.60;;
61569;SDS011;47462;59.172;17.196;2022-08-11T17:10:18;1.95;;;0.60;;
61569;SDS011;47462;59.172;17.196;2022-08-11T17:13:12;0.63;;;0.50;;
61569;SDS011;47462;59.172;17.196;2022-08-11T17:15:45;2.20;;;0.60;;
61569;SDS011;47462;59.172;17.196;2022-08-11T17:23:59;1.75;;;0.60;;
61569;SDS011;47462;59.172;17.196;2022-08-11T17:32:34;1.30;;;0.45;;
61569;SDS011;47462;59.172;17.196;2022-08-11T17:35:21;2.25;;;0.60;;
61569;SDS011;47462;59.172;17.196;2022-08-11T17:40:52;5.05;;;0.85;;
61569;SDS011;47462;59.172;17.196;2022-08-11T17:43:47;5.50;;;0.90;;
61569;SDS011;47462;59.172;17.196;2022-08-11T17:46:33;5.10;;;0.85;;
61569;SDS011;47462;59.172;17.196;2022-08-11T17:49:21;1.92;;;0.98;;
61569;SDS011;47462;59.172;17.196;2022-08-11T17:51:51;3.08;;;0.60;;
61569;SDS011;47462;59.172;17.196;2022-08-11T17:54:42;0.88;;;0.57;;
61569;SDS011;47462;59.172;17.196;2022-08-11T17:57:27;2.00;;;0.90;;
61569;SDS011;47462;59.172;17.196;2022-08-11T18:00:12;1.15;;;0.47;;
61569;SDS011;47462;59.172;17.196;2022-08-11T18:02:42;1.77;;;0.60;;
61569;SDS011;47462;59.172;17.196;2022-08-11T18:08:07;3.35;;;0.85;;
61569;SDS011;47462;59.172;17.196;2022-08-11T18:10:54;2.67;;;0.63;;
61569;SDS011;47462;59.172;17.196;2022-08-11T18:13:42;3.03;;;0.68;;
61569;SDS011;47462;59.172;17.196;2022-08-11T18:16:31;1.08;;;0.77;;
61569;SDS011;47462;59.172;17.196;2022-08-11T18:19:17;2.72;;;1.05;;
61569;SDS011;47462;59.172;17.196;2022-08-11T18:22:05;3.10;;;0.80;;
61569;SDS011;47462;59.172;17.196;2022-08-11T18:24:57;2.00;;;0.88;;
61569;SDS011;47462;59.172;17.196;2022-08-11T18:27:45;3.47;;;1.48;;
61569;SDS011;47462;59.172;17.196;2022-08-11T18:30:32;3.92;;;2.85;;
61569;SDS011;47462;59.172;17.196;2022-08-11T18:33:21;3.75;;;1.45;;
61569;SDS011;47462;59.172;17.196;2022-08-11T18:36:10;3.58;;;1.23;;
61569;SDS011;47462;59.172;17.196;2022-08-11T18:38:59;2.33;;;0.80;;
61569;SDS011;47462;59.172;17.196;2022-08-11T18:41:44;1.50;;;0.60;;
61569;SDS011;47462;59.172;17.196;2022-08-11T18:44:30;1.58;;;0.65;;
61569;SDS011;47462;59.172;17.196;2022-08-11T18:47:18;0.75;;;0.70;;
61569;SDS011;47462;59.172;17.196;2022-08-11T18:50:04;3.38;;;0.90;;
61569;SDS011;47462;59.172;17.196;2022-08-11T18:52:53;1.60;;;0.80;;
61569;SDS011;47462;59.172;17.196;2022-08-11T18:55:41;5.00;;;0.80;;
61569;SDS011;47462;59.172;17.196;2022-08-11T18:58:28;2.40;;;1.00;;
61569;SDS011;47462;59.172;17.196;2022-08-11T19:01:15;3.00;;;0.60;;
61569;SDS011;47462;59.172;17.196;2022-08-11T19:04:05;1.88;;;0.85;;
61569;SDS011;47462;59.172;17.196;2022-08-11T19:06:52;4.15;;;0.73;;
61569;SDS011;47462;59.172;17.196;2022-08-11T19:09:40;3.90;;;1.98;;
61569;SDS011;47462;59.172;17.196;2022-08-11T19:12:28;2.70;;;1.70;;
61569;SDS011;47462;59.172;17.196;2022-08-11T19:15:17;3.25;;;0.80;;
61569;SDS011;47462;59.172;17.196;2022-08-11T19:18:02;3.15;;;0.95;;
61569;SDS011;47462;59.172;17.196;2022-08-11T19:20:50;2.95;;;0.82;;
61569;SDS011;47462;59.172;17.196;2022-08-11T19:23:37;1.63;;;0.80;;
61569;SDS011;47462;59.172;17.196;2022-08-11T19:26:25;2.33;;;1.10;;
61569;SDS011;47462;59.172;17.196;2022-08-11T19:29:12;2.35;;;0.70;;
61569;SDS011;47462;59.172;17.196;2022-08-11T19:31:59;1.23;;;0.77;;
61569;SDS011;47462;59.172;17.196;2022-08-11T19:34:44;1.13;;;0.60;;
61569;SDS011;47462;59.172;17.196;2022-08-11T19:37:29;2.38;;;1.00;;
61569;SDS011;47462;59.172;17.196;2022-08-11T19:40:16;3.63;;;1.08;;